KECG/ECG METAR and TAF weather

Enter ICAO airport designator
Station Type Date Time Source
KECG METAR 2018/07/16 23:54 UTC NOAA

KECG 162354Z 18007KT 10SM CLR 28/24 A2999 RMK AO2 SLP155 T02830239 10317 20283 55001


Station Type Date Time Source
KECG Decoded METAR 2018/07/16 23:54 UTC NOAA

ELIZABETH CITY C/G REGN AIRPORT , NC, United States (KECG) 36-15N 076-10W 11M
Jul 16, 2018 - 07:54 PM EDT / 2018.07.16 2354 UTC
Wind: from the S (180 degrees) at 8 MPH (7 KT):0
Visibility: 10 mile(s):0
Sky conditions: clear
Temperature: 82.9 F (28.3 C)
Dew Point: 75.0 F (23.9 C)
Relative Humidity: 77%
Pressure (altimeter): 29.99 in. Hg (1015 hPa)
Pressure tendency: 0.00 inches (0.1 hPa) lower than three hours ago
ob: KECG 162354Z 18007KT 10SM CLR 28/24 A2999 RMK AO2 SLP155 T02830239 10317 20283 55001
cycle: 0

Station Type Date Time Source
KECG TAF 2018/07/16 18:24 UTC NOAA

TAF KECG 161720Z 1618/1718 20009KT P6SM SCT040 BKN150
FM170100 18008KT P6SM FEW050
FM171600 21008KT P6SM BKN100


Example: see airport list